sensor_id;sensor_type;location;lat;lon;timestamp;P1;durP1;ratioP1;P2;durP2;ratioP2
40675;SDS011;26359;48.750;9.314;2023-12-07T00:00:03;26.70;;;24.23;;
40675;SDS011;26359;48.750;9.314;2023-12-07T00:02:30;32.40;;;29.58;;
40675;SDS011;26359;48.750;9.314;2023-12-07T00:04:55;26.02;;;23.83;;
40675;SDS011;26359;48.750;9.314;2023-12-07T00:07:21;24.88;;;22.48;;
40675;SDS011;26359;48.750;9.314;2023-12-07T00:09:46;28.67;;;25.27;;
40675;SDS011;26359;48.750;9.314;2023-12-07T00:12:12;24.70;;;22.50;;
40675;SDS011;26359;48.750;9.314;2023-12-07T00:14:37;23.50;;;21.30;;
40675;SDS011;26359;48.750;9.314;2023-12-07T00:17:03;24.42;;;21.90;;
40675;SDS011;26359;48.750;9.314;2023-12-07T00:19:28;27.25;;;24.80;;
40675;SDS011;26359;48.750;9.314;2023-12-07T00:21:54;28.95;;;26.45;;
40675;SDS011;26359;48.750;9.314;2023-12-07T00:24:20;23.25;;;21.02;;
40675;SDS011;26359;48.750;9.314;2023-12-07T00:26:45;21.05;;;18.98;;
40675;SDS011;26359;48.750;9.314;2023-12-07T00:29:11;28.27;;;25.50;;
40675;SDS011;26359;48.750;9.314;2023-12-07T00:31:36;30.65;;;27.90;;
40675;SDS011;26359;48.750;9.314;2023-12-07T00:34:02;22.05;;;19.90;;
40675;SDS011;26359;48.750;9.314;2023-12-07T00:36:28;23.55;;;20.83;;
40675;SDS011;26359;48.750;9.314;2023-12-07T00:38:53;25.65;;;23.17;;
40675;SDS011;26359;48.750;9.314;2023-12-07T00:41:19;23.75;;;21.48;;
40675;SDS011;26359;48.750;9.314;2023-12-07T00:43:44;30.15;;;27.40;;
40675;SDS011;26359;48.750;9.314;2023-12-07T00:46:10;24.80;;;21.58;;
40675;SDS011;26359;48.750;9.314;2023-12-07T00:48:36;19.90;;;17.65;;
40675;SDS011;26359;48.750;9.314;2023-12-07T00:51:01;19.35;;;17.15;;
40675;SDS011;26359;48.750;9.314;2023-12-07T00:53:27;19.52;;;16.05;;
40675;SDS011;26359;48.750;9.314;2023-12-07T00:55:53;19.00;;;16.10;;
40675;SDS011;26359;48.750;9.314;2023-12-07T00:58:18;21.88;;;17.30;;
40675;SDS011;26359;48.750;9.314;2023-12-07T01:00:44;20.38;;;17.77;;
40675;SDS011;26359;48.750;9.314;2023-12-07T01:03:09;19.73;;;15.77;;
40675;SDS011;26359;48.750;9.314;2023-12-07T01:05:35;20.38;;;17.35;;
40675;SDS011;26359;48.750;9.314;2023-12-07T01:08:01;19.08;;;16.85;;
40675;SDS011;26359;48.750;9.314;2023-12-07T01:10:26;19.95;;;17.83;;
40675;SDS011;26359;48.750;9.314;2023-12-07T01:12:52;20.95;;;16.40;;
40675;SDS011;26359;48.750;9.314;2023-12-07T01:15:17;20.58;;;16.23;;
40675;SDS011;26359;48.750;9.314;2023-12-07T01:17:43;18.10;;;16.17;;
40675;SDS011;26359;48.750;9.314;2023-12-07T01:20:08;17.75;;;15.85;;
40675;SDS011;26359;48.750;9.314;2023-12-07T01:22:41;18.52;;;16.60;;
40675;SDS011;26359;48.750;9.314;2023-12-07T01:25:06;16.80;;;15.02;;
40675;SDS011;26359;48.750;9.314;2023-12-07T01:27:32;23.23;;;18.60;;
40675;SDS011;26359;48.750;9.314;2023-12-07T01:29:58;19.55;;;16.80;;
40675;SDS011;26359;48.750;9.314;2023-12-07T01:32:24;24.85;;;22.50;;
40675;SDS011;26359;48.750;9.314;2023-12-07T01:34:49;30.17;;;27.52;;
40675;SDS011;26359;48.750;9.314;2023-12-07T01:37:15;26.27;;;23.75;;
40675;SDS011;26359;48.750;9.314;2023-12-07T01:39:43;26.60;;;24.02;;
40675;SDS011;26359;48.750;9.314;2023-12-07T01:42:09;26.67;;;24.08;;
40675;SDS011;26359;48.750;9.314;2023-12-07T01:44:37;28.80;;;26.10;;
40675;SDS011;26359;48.750;9.314;2023-12-07T01:47:02;26.73;;;24.30;;
40675;SDS011;26359;48.750;9.314;2023-12-07T01:49:29;25.55;;;23.15;;
40675;SDS011;26359;48.750;9.314;2023-12-07T01:51:54;24.50;;;22.05;;
40675;SDS011;26359;48.750;9.314;2023-12-07T01:54:21;25.15;;;22.73;;
40675;SDS011;26359;48.750;9.314;2023-12-07T01:56:46;26.85;;;24.23;;
40675;SDS011;26359;48.750;9.314;2023-12-07T01:59:12;21.50;;;17.63;;
40675;SDS011;26359;48.750;9.314;2023-12-07T02:01:37;23.23;;;16.73;;
40675;SDS011;26359;48.750;9.314;2023-12-07T02:04:03;21.52;;;17.58;;
40675;SDS011;26359;48.750;9.314;2023-12-07T02:06:29;18.90;;;16.90;;
40675;SDS011;26359;48.750;9.314;2023-12-07T02:08:55;20.08;;;16.63;;
40675;SDS011;26359;48.750;9.314;2023-12-07T02:11:21;22.10;;;17.20;;
40675;SDS011;26359;48.750;9.314;2023-12-07T02:13:46;18.80;;;15.40;;
40675;SDS011;26359;48.750;9.314;2023-12-07T02:21:47;19.67;;;16.25;;
40675;SDS011;26359;48.750;9.314;2023-12-07T02:24:20;20.77;;;15.25;;
40675;SDS011;26359;48.750;9.314;2023-12-07T02:26:46;20.02;;;17.27;;
40675;SDS011;26359;48.750;9.314;2023-12-07T02:29:13;20.75;;;18.55;;
40675;SDS011;26359;48.750;9.314;2023-12-07T02:31:38;20.60;;;15.75;;
40675;SDS011;26359;48.750;9.314;2023-12-07T02:34:04;20.65;;;16.42;;
40675;SDS011;26359;48.750;9.314;2023-12-07T02:36:30;19.17;;;16.35;;
40675;SDS011;26359;48.750;9.314;2023-12-07T02:38:59;19.15;;;16.42;;
40675;SDS011;26359;48.750;9.314;2023-12-07T02:41:27;18.02;;;16.10;;
40675;SDS011;26359;48.750;9.314;2023-12-07T02:43:53;17.42;;;15.15;;
40675;SDS011;26359;48.750;9.314;2023-12-07T02:46:19;19.50;;;16.85;;
40675;SDS011;26359;48.750;9.314;2023-12-07T02:48:45;18.88;;;14.63;;
40675;SDS011;26359;48.750;9.314;2023-12-07T02:51:11;19.50;;;15.40;;
40675;SDS011;26359;48.750;9.314;2023-12-07T02:53:36;18.33;;;14.80;;
40675;SDS011;26359;48.750;9.314;2023-12-07T02:56:02;18.45;;;16.25;;
40675;SDS011;26359;48.750;9.314;2023-12-07T02:58:27;18.00;;;15.68;;
40675;SDS011;26359;48.750;9.314;2023-12-07T03:00:53;19.10;;;15.25;;
40675;SDS011;26359;48.750;9.314;2023-12-07T03:03:18;19.20;;;16.98;;
40675;SDS011;26359;48.750;9.314;2023-12-07T03:05:44;18.35;;;16.40;;
40675;SDS011;26359;48.750;9.314;2023-12-07T03:08:09;19.38;;;16.83;;
40675;SDS011;26359;48.750;9.314;2023-12-07T03:10:35;20.48;;;18.30;;
40675;SDS011;26359;48.750;9.314;2023-12-07T03:13:00;21.70;;;19.42;;
40675;SDS011;26359;48.750;9.314;2023-12-07T03:15:26;21.85;;;19.50;;
40675;SDS011;26359;48.750;9.314;2023-12-07T03:17:51;19.95;;;17.88;;
40675;SDS011;26359;48.750;9.314;2023-12-07T03:20:17;21.63;;;19.42;;
40675;SDS011;26359;48.750;9.314;2023-12-07T03:22:42;21.75;;;19.35;;
40675;SDS011;26359;48.750;9.314;2023-12-07T03:25:08;19.77;;;17.77;;
40675;SDS011;26359;48.750;9.314;2023-12-07T03:27:34;20.75;;;18.55;;
40675;SDS011;26359;48.750;9.314;2023-12-07T03:29:59;22.08;;;19.65;;
40675;SDS011;26359;48.750;9.314;2023-12-07T03:32:25;24.88;;;22.23;;
40675;SDS011;26359;48.750;9.314;2023-12-07T03:34:50;21.30;;;14.90;;
40675;SDS011;26359;48.750;9.314;2023-12-07T03:37:16;23.05;;;15.85;;
40675;SDS011;26359;48.750;9.314;2023-12-07T03:39:41;18.27;;;15.82;;
40675;SDS011;26359;48.750;9.314;2023-12-07T03:42:07;17.67;;;14.68;;
40675;SDS011;26359;48.750;9.314;2023-12-07T03:44:32;21.02;;;17.02;;
40675;SDS011;26359;48.750;9.314;2023-12-07T03:46:58;21.85;;;14.98;;
40675;SDS011;26359;48.750;9.314;2023-12-07T03:49:23;18.00;;;14.82;;
40675;SDS011;26359;48.750;9.314;2023-12-07T03:51:49;20.70;;;16.27;;
40675;SDS011;26359;48.750;9.314;2023-12-07T03:54:14;19.05;;;15.80;;
40675;SDS011;26359;48.750;9.314;2023-12-07T03:56:40;19.50;;;16.67;;
40675;SDS011;26359;48.750;9.314;2023-12-07T03:59:05;22.02;;;16.23;;
40675;SDS011;26359;48.750;9.314;2023-12-07T04:01:31;21.95;;;18.95;;
40675;SDS011;26359;48.750;9.314;2023-12-07T04:03:57;18.02;;;16.05;;
40675;SDS011;26359;48.750;9.314;2023-12-07T04:06:23;18.73;;;14.82;;
40675;SDS011;26359;48.750;9.314;2023-12-07T04:08:48;19.33;;;15.57;;
40675;SDS011;26359;48.750;9.314;2023-12-07T04:11:14;19.33;;;15.45;;
40675;SDS011;26359;48.750;9.314;2023-12-07T04:13:40;18.35;;;15.45;;
40675;SDS011;26359;48.750;9.314;2023-12-07T04:16:07;20.85;;;15.23;;
40675;SDS011;26359;48.750;9.314;2023-12-07T04:18:33;19.50;;;17.42;;
40675;SDS011;26359;48.750;9.314;2023-12-07T04:20:58;18.27;;;15.32;;
40675;SDS011;26359;48.750;9.314;2023-12-07T04:23:24;16.83;;;14.40;;
40675;SDS011;26359;48.750;9.314;2023-12-07T04:25:49;21.00;;;16.85;;
40675;SDS011;26359;48.750;9.314;2023-12-07T04:28:15;18.92;;;15.30;;
40675;SDS011;26359;48.750;9.314;2023-12-07T04:30:41;20.75;;;16.02;;
40675;SDS011;26359;48.750;9.314;2023-12-07T04:33:06;18.75;;;15.38;;
40675;SDS011;26359;48.750;9.314;2023-12-07T04:35:32;21.70;;;15.65;;
40675;SDS011;26359;48.750;9.314;2023-12-07T04:37:57;20.67;;;15.85;;
40675;SDS011;26359;48.750;9.314;2023-12-07T04:40:24;27.00;;;24.20;;
40675;SDS011;26359;48.750;9.314;2023-12-07T04:42:50;22.27;;;19.58;;
40675;SDS011;26359;48.750;9.314;2023-12-07T04:45:15;21.65;;;19.40;;
40675;SDS011;26359;48.750;9.314;2023-12-07T04:47:41;24.45;;;20.58;;
40675;SDS011;26359;48.750;9.314;2023-12-07T04:50:06;19.20;;;17.08;;
40675;SDS011;26359;48.750;9.314;2023-12-07T04:52:32;24.27;;;21.27;;
40675;SDS011;26359;48.750;9.314;2023-12-07T04:54:58;20.63;;;17.10;;
40675;SDS011;26359;48.750;9.314;2023-12-07T04:57:24;20.92;;;16.17;;
40675;SDS011;26359;48.750;9.314;2023-12-07T04:59:50;20.00;;;17.33;;
40675;SDS011;26359;48.750;9.314;2023-12-07T05:02:16;18.30;;;16.13;;
40675;SDS011;26359;48.750;9.314;2023-12-07T05:04:42;21.40;;;17.23;;
40675;SDS011;26359;48.750;9.314;2023-12-07T05:07:08;19.98;;;16.10;;
40675;SDS011;26359;48.750;9.314;2023-12-07T05:09:33;20.60;;;18.15;;
40675;SDS011;26359;48.750;9.314;2023-12-07T05:11:59;21.95;;;18.60;;
40675;SDS011;26359;48.750;9.314;2023-12-07T05:14:24;23.25;;;20.75;;
40675;SDS011;26359;48.750;9.314;2023-12-07T05:16:50;22.10;;;18.15;;
40675;SDS011;26359;48.750;9.314;2023-12-07T05:19:20;20.92;;;17.60;;
40675;SDS011;26359;48.750;9.314;2023-12-07T05:21:49;21.25;;;18.95;;
40675;SDS011;26359;48.750;9.314;2023-12-07T05:24:15;21.70;;;18.77;;
40675;SDS011;26359;48.750;9.314;2023-12-07T05:26:41;22.52;;;16.27;;
40675;SDS011;26359;48.750;9.314;2023-12-07T05:29:07;20.17;;;15.25;;
40675;SDS011;26359;48.750;9.314;2023-12-07T05:31:33;24.67;;;14.77;;
40675;SDS011;26359;48.750;9.314;2023-12-07T05:33:58;19.20;;;15.75;;
40675;SDS011;26359;48.750;9.314;2023-12-07T05:36:24;20.38;;;15.90;;
40675;SDS011;26359;48.750;9.314;2023-12-07T05:38:51;20.88;;;18.60;;
40675;SDS011;26359;48.750;9.314;2023-12-07T05:41:16;19.73;;;17.38;;
40675;SDS011;26359;48.750;9.314;2023-12-07T05:43:42;20.02;;;14.43;;
40675;SDS011;26359;48.750;9.314;2023-12-07T05:46:07;19.02;;;15.27;;
40675;SDS011;26359;48.750;9.314;2023-12-07T05:48:33;20.67;;;15.80;;
40675;SDS011;26359;48.750;9.314;2023-12-07T05:50:59;22.23;;;15.85;;
40675;SDS011;26359;48.750;9.314;2023-12-07T05:53:26;23.17;;;14.90;;
40675;SDS011;26359;48.750;9.314;2023-12-07T05:55:52;20.02;;;15.77;;
40675;SDS011;26359;48.750;9.314;2023-12-07T05:58:17;21.05;;;17.05;;
40675;SDS011;26359;48.750;9.314;2023-12-07T06:00:43;18.02;;;14.50;;
40675;SDS011;26359;48.750;9.314;2023-12-07T06:03:11;22.05;;;15.05;;
40675;SDS011;26359;48.750;9.314;2023-12-07T06:05:38;18.55;;;15.13;;
40675;SDS011;26359;48.750;9.314;2023-12-07T06:08:03;21.88;;;15.82;;
40675;SDS011;26359;48.750;9.314;2023-12-07T06:10:29;20.08;;;15.35;;
40675;SDS011;26359;48.750;9.314;2023-12-07T06:12:55;20.95;;;16.52;;
40675;SDS011;26359;48.750;9.314;2023-12-07T06:15:23;21.42;;;16.02;;
40675;SDS011;26359;48.750;9.314;2023-12-07T06:17:48;21.40;;;16.98;;
40675;SDS011;26359;48.750;9.314;2023-12-07T06:20:14;23.60;;;16.50;;
40675;SDS011;26359;48.750;9.314;2023-12-07T06:22:40;24.10;;;17.63;;
40675;SDS011;26359;48.750;9.314;2023-12-07T06:25:06;21.60;;;15.57;;
40675;SDS011;26359;48.750;9.314;2023-12-07T06:27:33;20.05;;;15.35;;
40675;SDS011;26359;48.750;9.314;2023-12-07T06:29:59;26.23;;;14.90;;
40675;SDS011;26359;48.750;9.314;2023-12-07T06:32:25;22.52;;;16.35;;
40675;SDS011;26359;48.750;9.314;2023-12-07T06:34:51;25.80;;;17.90;;
40675;SDS011;26359;48.750;9.314;2023-12-07T06:37:16;22.23;;;16.35;;
40675;SDS011;26359;48.750;9.314;2023-12-07T06:39:42;26.92;;;16.65;;
40675;SDS011;26359;48.750;9.314;2023-12-07T06:42:08;27.45;;;17.33;;
40675;SDS011;26359;48.750;9.314;2023-12-07T06:44:33;23.00;;;17.17;;
40675;SDS011;26359;48.750;9.314;2023-12-07T06:47:00;26.98;;;18.90;;
40675;SDS011;26359;48.750;9.314;2023-12-07T06:49:28;26.35;;;17.50;;
40675;SDS011;26359;48.750;9.314;2023-12-07T06:51:53;21.00;;;15.65;;
40675;SDS011;26359;48.750;9.314;2023-12-07T06:54:19;23.80;;;16.55;;
40675;SDS011;26359;48.750;9.314;2023-12-07T06:56:44;23.23;;;16.33;;
40675;SDS011;26359;48.750;9.314;2023-12-07T06:59:11;20.27;;;16.95;;
40675;SDS011;26359;48.750;9.314;2023-12-07T07:01:36;21.35;;;16.02;;
40675;SDS011;26359;48.750;9.314;2023-12-07T07:04:03;23.92;;;18.23;;
40675;SDS011;26359;48.750;9.314;2023-12-07T07:06:28;19.67;;;15.70;;
40675;SDS011;26359;48.750;9.314;2023-12-07T07:08:54;20.70;;;14.57;;
40675;SDS011;26359;48.750;9.314;2023-12-07T07:11:19;21.38;;;14.98;;
40675;SDS011;26359;48.750;9.314;2023-12-07T07:13:45;21.73;;;17.13;;
40675;SDS011;26359;48.750;9.314;2023-12-07T07:16:10;23.20;;;17.20;;
40675;SDS011;26359;48.750;9.314;2023-12-07T07:18:39;20.85;;;16.90;;
40675;SDS011;26359;48.750;9.314;2023-12-07T07:21:05;24.38;;;17.92;;
40675;SDS011;26359;48.750;9.314;2023-12-07T07:23:31;22.25;;;16.48;;
40675;SDS011;26359;48.750;9.314;2023-12-07T07:25:56;20.88;;;18.30;;
40675;SDS011;26359;48.750;9.314;2023-12-07T07:28:22;24.15;;;17.75;;
40675;SDS011;26359;48.750;9.314;2023-12-07T07:30:47;21.98;;;16.30;;
40675;SDS011;26359;48.750;9.314;2023-12-07T07:33:13;21.95;;;15.48;;
40675;SDS011;26359;48.750;9.314;2023-12-07T07:35:39;21.83;;;15.82;;
40675;SDS011;26359;48.750;9.314;2023-12-07T07:38:04;21.95;;;17.20;;
40675;SDS011;26359;48.750;9.314;2023-12-07T07:40:30;19.70;;;15.85;;
40675;SDS011;26359;48.750;9.314;2023-12-07T07:42:55;23.30;;;16.20;;
40675;SDS011;26359;48.750;9.314;2023-12-07T07:45:21;22.25;;;16.30;;
40675;SDS011;26359;48.750;9.314;2023-12-07T07:47:46;21.98;;;17.15;;
40675;SDS011;26359;48.750;9.314;2023-12-07T07:50:12;20.85;;;14.88;;
40675;SDS011;26359;48.750;9.314;2023-12-07T07:52:38;22.98;;;16.60;;
40675;SDS011;26359;48.750;9.314;2023-12-07T07:55:05;21.05;;;16.60;;
40675;SDS011;26359;48.750;9.314;2023-12-07T07:57:32;23.33;;;17.02;;
40675;SDS011;26359;48.750;9.314;2023-12-07T07:59:57;23.80;;;17.75;;
40675;SDS011;26359;48.750;9.314;2023-12-07T08:02:23;27.33;;;20.40;;
40675;SDS011;26359;48.750;9.314;2023-12-07T08:04:49;33.20;;;20.02;;
40675;SDS011;26359;48.750;9.314;2023-12-07T08:07:16;28.70;;;20.08;;
40675;SDS011;26359;48.750;9.314;2023-12-07T08:09:42;30.75;;;20.67;;
40675;SDS011;26359;48.750;9.314;2023-12-07T08:12:08;34.30;;;21.08;;
40675;SDS011;26359;48.750;9.314;2023-12-07T08:14:35;34.47;;;21.60;;
40675;SDS011;26359;48.750;9.314;2023-12-07T08:17:00;31.92;;;25.35;;
40675;SDS011;26359;48.750;9.314;2023-12-07T08:19:26;33.08;;;24.25;;
40675;SDS011;26359;48.750;9.314;2023-12-07T08:21:52;31.70;;;22.08;;
40675;SDS011;26359;48.750;9.314;2023-12-07T08:24:17;30.52;;;21.00;;
40675;SDS011;26359;48.750;9.314;2023-12-07T08:26:43;30.05;;;20.00;;
40675;SDS011;26359;48.750;9.314;2023-12-07T08:29:08;28.80;;;19.92;;
40675;SDS011;26359;48.750;9.314;2023-12-07T08:31:34;26.95;;;19.08;;
40675;SDS011;26359;48.750;9.314;2023-12-07T08:33:59;35.60;;;19.70;;
40675;SDS011;26359;48.750;9.314;2023-12-07T08:36:25;30.63;;;18.52;;
40675;SDS011;26359;48.750;9.314;2023-12-07T08:38:51;44.25;;;20.33;;
40675;SDS011;26359;48.750;9.314;2023-12-07T08:41:17;25.63;;;18.02;;
40675;SDS011;26359;48.750;9.314;2023-12-07T08:43:43;22.40;;;16.92;;
40675;SDS011;26359;48.750;9.314;2023-12-07T08:46:08;24.75;;;17.23;;
40675;SDS011;26359;48.750;9.314;2023-12-07T08:48:35;23.35;;;17.23;;
40675;SDS011;26359;48.750;9.314;2023-12-07T08:51:02;23.70;;;16.88;;
40675;SDS011;26359;48.750;9.314;2023-12-07T08:53:28;22.25;;;16.73;;
40675;SDS011;26359;48.750;9.314;2023-12-07T08:55:54;21.17;;;18.38;;
40675;SDS011;26359;48.750;9.314;2023-12-07T08:58:19;20.70;;;14.68;;
40675;SDS011;26359;48.750;9.314;2023-12-07T09:00:45;20.42;;;14.73;;
40675;SDS011;26359;48.750;9.314;2023-12-07T09:03:11;18.02;;;15.15;;
40675;SDS011;26359;48.750;9.314;2023-12-07T09:05:37;17.85;;;14.10;;
40675;SDS011;26359;48.750;9.314;2023-12-07T09:08:02;18.10;;;15.73;;
40675;SDS011;26359;48.750;9.314;2023-12-07T09:10:28;20.00;;;16.40;;
40675;SDS011;26359;48.750;9.314;2023-12-07T09:12:54;18.27;;;15.57;;
40675;SDS011;26359;48.750;9.314;2023-12-07T09:15:19;19.85;;;16.58;;
40675;SDS011;26359;48.750;9.314;2023-12-07T09:17:46;18.88;;;16.88;;
40675;SDS011;26359;48.750;9.314;2023-12-07T09:20:13;16.58;;;14.80;;
40675;SDS011;26359;48.750;9.314;2023-12-07T09:22:40;20.83;;;18.83;;
40675;SDS011;26359;48.750;9.314;2023-12-07T09:25:07;18.13;;;16.33;;
40675;SDS011;26359;48.750;9.314;2023-12-07T09:27:34;20.00;;;18.05;;
40675;SDS011;26359;48.750;9.314;2023-12-07T09:30:02;38.67;;;35.90;;
40675;SDS011;26359;48.750;9.314;2023-12-07T09:32:29;35.60;;;32.70;;
40675;SDS011;26359;48.750;9.314;2023-12-07T09:34:55;23.85;;;21.42;;
40675;SDS011;26359;48.750;9.314;2023-12-07T09:37:20;41.08;;;37.90;;
40675;SDS011;26359;48.750;9.314;2023-12-07T09:39:46;26.75;;;24.25;;
40675;SDS011;26359;48.750;9.314;2023-12-07T09:42:11;36.85;;;33.70;;
40675;SDS011;26359;48.750;9.314;2023-12-07T09:44:37;26.10;;;23.80;;
40675;SDS011;26359;48.750;9.314;2023-12-07T09:47:02;34.78;;;31.85;;
40675;SDS011;26359;48.750;9.314;2023-12-07T09:49:29;30.80;;;27.73;;
40675;SDS011;26359;48.750;9.314;2023-12-07T09:51:55;25.08;;;22.90;;
40675;SDS011;26359;48.750;9.314;2023-12-07T09:54:23;30.13;;;27.58;;
40675;SDS011;26359;48.750;9.314;2023-12-07T09:56:50;26.75;;;23.95;;
40675;SDS011;26359;48.750;9.314;2023-12-07T09:59:18;24.17;;;21.88;;
40675;SDS011;26359;48.750;9.314;2023-12-07T10:01:43;26.20;;;23.80;;
40675;SDS011;26359;48.750;9.314;2023-12-07T10:06:45;19.00;;;17.08;;
40675;SDS011;26359;48.750;9.314;2023-12-07T10:09:11;24.38;;;21.90;;
40675;SDS011;26359;48.750;9.314;2023-12-07T10:11:37;20.45;;;18.42;;
40675;SDS011;26359;48.750;9.314;2023-12-07T10:14:04;17.95;;;16.15;;
40675;SDS011;26359;48.750;9.314;2023-12-07T10:16:32;19.40;;;16.70;;
40675;SDS011;26359;48.750;9.314;2023-12-07T10:19:12;23.83;;;21.52;;
40675;SDS011;26359;48.750;9.314;2023-12-07T10:21:39;22.92;;;20.75;;
40675;SDS011;26359;48.750;9.314;2023-12-07T10:24:05;20.40;;;18.45;;
40675;SDS011;26359;48.750;9.314;2023-12-07T10:26:30;22.02;;;19.83;;
40675;SDS011;26359;48.750;9.314;2023-12-07T10:28:56;21.63;;;19.63;;
40675;SDS011;26359;48.750;9.314;2023-12-07T10:31:24;19.58;;;17.67;;
40675;SDS011;26359;48.750;9.314;2023-12-07T10:33:51;19.88;;;17.98;;
40675;SDS011;26359;48.750;9.314;2023-12-07T10:36:16;20.98;;;19.15;;
40675;SDS011;26359;48.750;9.314;2023-12-07T10:38:42;19.73;;;17.02;;
40675;SDS011;26359;48.750;9.314;2023-12-07T10:41:10;23.63;;;20.77;;
40675;SDS011;26359;48.750;9.314;2023-12-07T10:43:38;19.35;;;17.27;;
40675;SDS011;26359;48.750;9.314;2023-12-07T10:46:07;19.08;;;15.35;;
40675;SDS011;26359;48.750;9.314;2023-12-07T10:48:34;18.38;;;15.73;;
40675;SDS011;26359;48.750;9.314;2023-12-07T10:51:02;15.15;;;13.48;;
40675;SDS011;26359;48.750;9.314;2023-12-07T10:53:34;19.08;;;15.52;;
40675;SDS011;26359;48.750;9.314;2023-12-07T10:56:05;20.15;;;16.08;;
40675;SDS011;26359;48.750;9.314;2023-12-07T10:58:35;18.80;;;14.93;;
40675;SDS011;26359;48.750;9.314;2023-12-07T11:01:02;16.40;;;14.55;;
40675;SDS011;26359;48.750;9.314;2023-12-07T11:03:28;18.13;;;16.38;;
40675;SDS011;26359;48.750;9.314;2023-12-07T11:05:54;15.77;;;13.70;;
40675;SDS011;26359;48.750;9.314;2023-12-07T11:13:29;14.88;;;12.85;;
40675;SDS011;26359;48.750;9.314;2023-12-07T11:15:59;16.05;;;13.73;;
40675;SDS011;26359;48.750;9.314;2023-12-07T11:18:25;15.27;;;13.38;;
40675;SDS011;26359;48.750;9.314;2023-12-07T11:20:52;15.40;;;13.88;;
40675;SDS011;26359;48.750;9.314;2023-12-07T11:23:19;13.80;;;12.15;;
40675;SDS011;26359;48.750;9.314;2023-12-07T11:25:46;15.45;;;13.68;;
40675;SDS011;26359;48.750;9.314;2023-12-07T11:28:12;14.70;;;13.20;;
40675;SDS011;26359;48.750;9.314;2023-12-07T11:30:41;15.15;;;13.63;;
40675;SDS011;26359;48.750;9.314;2023-12-07T11:33:08;16.92;;;13.88;;
40675;SDS011;26359;48.750;9.314;2023-12-07T11:36:03;13.05;;;11.77;;
40675;SDS011;26359;48.750;9.314;2023-12-07T11:38:29;12.65;;;11.38;;
40675;SDS011;26359;48.750;9.314;2023-12-07T11:40:55;12.38;;;10.77;;
40675;SDS011;26359;48.750;9.314;2023-12-07T11:46:09;11.50;;;10.05;;
40675;SDS011;26359;48.750;9.314;2023-12-07T11:48:35;16.27;;;9.95;;
40675;SDS011;26359;48.750;9.314;2023-12-07T11:51:01;14.63;;;11.57;;
40675;SDS011;26359;48.750;9.314;2023-12-07T11:53:34;13.07;;;10.88;;
40675;SDS011;26359;48.750;9.314;2023-12-07T11:56:01;13.82;;;10.95;;
40675;SDS011;26359;48.750;9.314;2023-12-07T11:58:32;13.68;;;11.57;;
40675;SDS011;26359;48.750;9.314;2023-12-07T12:00:59;12.32;;;10.70;;
40675;SDS011;26359;48.750;9.314;2023-12-07T12:03:26;10.98;;;9.63;;
40675;SDS011;26359;48.750;9.314;2023-12-07T12:05:53;9.90;;;8.60;;
40675;SDS011;26359;48.750;9.314;2023-12-07T12:08:19;12.07;;;10.88;;
40675;SDS011;26359;48.750;9.314;2023-12-07T12:10:46;9.43;;;8.55;;
40675;SDS011;26359;48.750;9.314;2023-12-07T12:13:14;10.55;;;9.65;;
40675;SDS011;26359;48.750;9.314;2023-12-07T12:15:40;10.05;;;9.05;;
40675;SDS011;26359;48.750;9.314;2023-12-07T12:18:06;11.18;;;10.02;;
40675;SDS011;26359;48.750;9.314;2023-12-07T12:20:33;11.30;;;10.20;;
40675;SDS011;26359;48.750;9.314;2023-12-07T12:22:59;11.55;;;8.07;;
40675;SDS011;26359;48.750;9.314;2023-12-07T12:25:28;8.20;;;7.50;;
40675;SDS011;26359;48.750;9.314;2023-12-07T12:27:58;8.82;;;8.02;;
40675;SDS011;26359;48.750;9.314;2023-12-07T12:30:27;8.60;;;7.80;;
40675;SDS011;26359;48.750;9.314;2023-12-07T12:32:53;9.52;;;8.32;;
40675;SDS011;26359;48.750;9.314;2023-12-07T12:35:20;8.27;;;7.47;;
40675;SDS011;26359;48.750;9.314;2023-12-07T12:37:46;9.15;;;8.25;;
40675;SDS011;26359;48.750;9.314;2023-12-07T12:40:14;10.65;;;8.43;;
40675;SDS011;26359;48.750;9.314;2023-12-07T12:42:45;9.80;;;8.95;;
40675;SDS011;26359;48.750;9.314;2023-12-07T12:45:12;10.43;;;9.40;;
40675;SDS011;26359;48.750;9.314;2023-12-07T12:47:38;12.75;;;9.88;;
40675;SDS011;26359;48.750;9.314;2023-12-07T12:50:06;12.05;;;9.52;;
40675;SDS011;26359;48.750;9.314;2023-12-07T12:52:32;9.82;;;8.90;;
40675;SDS011;26359;48.750;9.314;2023-12-07T12:54:58;10.25;;;8.57;;
40675;SDS011;26359;48.750;9.314;2023-12-07T12:57:24;10.18;;;9.30;;
40675;SDS011;26359;48.750;9.314;2023-12-07T12:59:50;10.10;;;8.93;;
40675;SDS011;26359;48.750;9.314;2023-12-07T13:02:16;11.27;;;9.85;;
40675;SDS011;26359;48.750;9.314;2023-12-07T13:04:43;8.75;;;7.88;;
40675;SDS011;26359;48.750;9.314;2023-12-07T13:07:10;10.40;;;8.50;;
40675;SDS011;26359;48.750;9.314;2023-12-07T13:09:39;9.40;;;8.48;;
40675;SDS011;26359;48.750;9.314;2023-12-07T13:12:05;10.05;;;8.57;;
40675;SDS011;26359;48.750;9.314;2023-12-07T13:14:31;9.13;;;8.25;;
40675;SDS011;26359;48.750;9.314;2023-12-07T13:17:03;12.48;;;9.20;;
40675;SDS011;26359;48.750;9.314;2023-12-07T13:19:32;9.80;;;7.65;;
40675;SDS011;26359;48.750;9.314;2023-12-07T13:21:58;8.45;;;7.55;;
40675;SDS011;26359;48.750;9.314;2023-12-07T13:24:24;9.48;;;7.90;;
40675;SDS011;26359;48.750;9.314;2023-12-07T13:26:50;8.38;;;7.40;;
40675;SDS011;26359;48.750;9.314;2023-12-07T13:29:15;7.82;;;7.10;;
40675;SDS011;26359;48.750;9.314;2023-12-07T13:31:41;6.90;;;6.28;;
40675;SDS011;26359;48.750;9.314;2023-12-07T13:34:06;8.15;;;6.05;;
40675;SDS011;26359;48.750;9.314;2023-12-07T13:36:32;6.53;;;5.95;;
40675;SDS011;26359;48.750;9.314;2023-12-07T13:38:58;7.28;;;6.70;;
40675;SDS011;26359;48.750;9.314;2023-12-07T13:41:27;6.10;;;5.60;;
40675;SDS011;26359;48.750;9.314;2023-12-07T13:43:53;7.90;;;6.05;;
40675;SDS011;26359;48.750;9.314;2023-12-07T13:46:18;6.00;;;5.53;;
40675;SDS011;26359;48.750;9.314;2023-12-07T13:48:44;6.13;;;5.63;;
40675;SDS011;26359;48.750;9.314;2023-12-07T13:51:10;6.13;;;5.47;;
40675;SDS011;26359;48.750;9.314;2023-12-07T13:53:35;7.93;;;5.32;;
40675;SDS011;26359;48.750;9.314;2023-12-07T13:56:02;5.50;;;5.10;;
40675;SDS011;26359;48.750;9.314;2023-12-07T13:58:29;6.38;;;5.75;;
40675;SDS011;26359;48.750;9.314;2023-12-07T14:00:55;5.15;;;4.75;;
40675;SDS011;26359;48.750;9.314;2023-12-07T14:03:20;5.85;;;4.95;;
40675;SDS011;26359;48.750;9.314;2023-12-07T14:05:46;6.45;;;5.60;;
40675;SDS011;26359;48.750;9.314;2023-12-07T14:08:12;5.97;;;5.38;;
40675;SDS011;26359;48.750;9.314;2023-12-07T14:10:38;7.28;;;5.45;;
40675;SDS011;26359;48.750;9.314;2023-12-07T14:13:03;8.73;;;6.43;;
40675;SDS011;26359;48.750;9.314;2023-12-07T14:15:29;8.88;;;5.72;;
40675;SDS011;26359;48.750;9.314;2023-12-07T14:17:57;8.98;;;5.70;;
40675;SDS011;26359;48.750;9.314;2023-12-07T14:20:24;6.00;;;5.13;;
40675;SDS011;26359;48.750;9.314;2023-12-07T14:22:52;5.78;;;5.28;;
40675;SDS011;26359;48.750;9.314;2023-12-07T14:25:18;6.00;;;5.40;;
40675;SDS011;26359;48.750;9.314;2023-12-07T14:27:44;6.25;;;5.75;;
40675;SDS011;26359;48.750;9.314;2023-12-07T14:30:10;7.05;;;6.38;;
40675;SDS011;26359;48.750;9.314;2023-12-07T14:32:36;7.03;;;6.45;;
40675;SDS011;26359;48.750;9.314;2023-12-07T14:35:01;5.97;;;5.22;;